createdAt,value
2022-08-28T00:02:02.499Z,9.10
2022-08-28T00:05:06.276Z,8.10
2022-08-28T00:08:10.581Z,14.98
2022-08-28T00:11:13.080Z,12.00
2022-08-28T00:14:16.658Z,8.73
2022-08-28T00:17:18.905Z,4.47
2022-08-28T00:20:21.210Z,8.80
2022-08-28T00:23:24.157Z,10.43
2022-08-28T00:26:47.319Z,10.32
2022-08-28T00:29:51.517Z,12.18
2022-08-28T00:32:55.372Z,13.23
2022-08-28T00:35:58.100Z,12.32
2022-08-28T00:39:00.558Z,12.70
2022-08-28T00:42:02.844Z,9.43
2022-08-28T00:45:06.533Z,6.25
2022-08-28T00:48:08.803Z,5.65
2022-08-28T00:51:31.047Z,16.00
2022-08-28T00:54:35.985Z,8.40
2022-08-28T00:57:45.269Z,10.18
2022-08-28T01:00:47.089Z,8.02
2022-08-28T01:03:48.875Z,5.95
2022-08-28T01:06:54.611Z,7.75
2022-08-28T01:09:56.970Z,7.10
2022-08-28T01:12:59.469Z,7.40
2022-08-28T01:16:03.759Z,9.02
2022-08-28T01:19:10.461Z,14.15
2022-08-28T01:22:29.693Z,11.85
2022-08-28T01:25:36.623Z,7.53
2022-08-28T01:28:38.752Z,6.13
2022-08-28T01:31:41.242Z,10.13
2022-08-28T01:34:43.186Z,6.80
2022-08-28T01:37:48.135Z,6.50
2022-08-28T01:40:53.434Z,7.28
2022-08-28T01:43:56.228Z,7.63
2022-08-28T01:46:58.586Z,8.73
2022-08-28T01:50:00.535Z,9.88
2022-08-28T01:53:06.636Z,10.88
2022-08-28T01:56:15.894Z,10.10
2022-08-28T01:59:18.348Z,15.80
2022-08-28T02:02:20.737Z,13.55
2022-08-28T02:05:24.856Z,9.20
2022-08-28T02:08:27.034Z,7.18
2022-08-28T02:11:30.576Z,9.05
2022-08-28T02:14:33.417Z,11.73
2022-08-28T02:17:35.348Z,10.60
2022-08-28T02:20:38.055Z,12.55
2022-08-28T02:23:42.710Z,12.50
2022-08-28T02:26:45.220Z,11.73
2022-08-28T02:29:51.130Z,22.73
2022-08-28T02:37:08.650Z,16.13
2022-08-28T02:40:20.787Z,14.02
2022-08-28T02:43:43.645Z,6.97
2022-08-28T02:46:53.960Z,8.38
2022-08-28T02:50:06.748Z,6.05
2022-08-28T02:53:23.998Z,7.50
2022-08-28T02:56:35.976Z,5.70
2022-08-28T02:59:44.899Z,5.88
2022-08-28T03:02:59.083Z,5.03
2022-08-28T03:06:09.077Z,4.70
2022-08-28T03:09:20.455Z,9.10
2022-08-28T03:12:25.003Z,3.47
2022-08-28T03:15:27.124Z,6.57
2022-08-28T03:18:30.752Z,4.40
2022-08-28T03:21:35.071Z,8.50
2022-08-28T03:24:37.890Z,8.70
2022-08-28T03:27:43.530Z,5.63
2022-08-28T03:30:46.094Z,6.55
2022-08-28T03:33:49.246Z,7.18
2022-08-28T03:36:51.588Z,6.55
2022-08-28T03:39:59.537Z,6.60
2022-08-28T03:43:03.954Z,7.63
2022-08-28T03:46:19.769Z,6.10
2022-08-28T03:49:23.157Z,6.20
2022-08-28T03:52:35.547Z,4.93
2022-08-28T03:55:43.298Z,4.75
2022-08-28T03:58:45.297Z,6.15
2022-08-28T04:01:48.831Z,5.10
2022-08-28T04:04:51.987Z,8.40
2022-08-28T04:07:56.248Z,7.53
2022-08-28T04:10:59.724Z,4.82
2022-08-28T04:14:02.442Z,6.22
2022-08-28T04:17:05.518Z,7.05
2022-08-28T04:20:12.187Z,6.72
2022-08-28T04:26:20.670Z,3.20
2022-08-28T04:32:26.259Z,6.20
2022-08-28T04:35:29.200Z,3.63
2022-08-28T04:38:33.407Z,3.03
2022-08-28T04:41:40.278Z,9.23
2022-08-28T04:44:43.948Z,7.15
2022-08-28T04:47:46.141Z,10.52
2022-08-28T04:50:50.974Z,7.32
2022-08-28T04:53:53.235Z,6.20
2022-08-28T04:56:55.549Z,5.70
2022-08-28T04:59:59.162Z,8.07
2022-08-28T05:03:16.121Z,4.22
2022-08-28T05:06:18.499Z,3.45
2022-08-28T05:09:21.275Z,3.17
2022-08-28T05:12:24.502Z,6.40
2022-08-28T05:15:28.115Z,4.25
2022-08-28T05:18:32.648Z,4.50
2022-08-28T05:21:35.591Z,4.05
2022-08-28T05:24:38.582Z,3.60
2022-08-28T05:27:43.108Z,4.38
2022-08-28T05:30:45.814Z,2.83
2022-08-28T05:33:52.598Z,3.95
2022-08-28T05:36:54.690Z,3.50
2022-08-28T05:39:57.637Z,6.47
2022-08-28T05:43:00.818Z,3.28
2022-08-28T05:46:10.769Z,2.33
2022-08-28T05:49:16.118Z,6.43
2022-08-28T05:52:18.729Z,4.82
2022-08-28T05:55:59.521Z,3.75
2022-08-28T05:59:10.993Z,5.80
2022-08-28T06:02:24.705Z,5.93
2022-08-28T06:05:27.412Z,4.93
2022-08-28T06:08:30.399Z,4.97
2022-08-28T06:11:32.894Z,7.13
2022-08-28T06:14:35.721Z,3.80
2022-08-28T06:17:38.247Z,4.18
2022-08-28T06:20:43.574Z,2.85
2022-08-28T06:23:46.201Z,4.97
2022-08-28T06:26:49.679Z,5.55
2022-08-28T06:29:52.184Z,5.20
2022-08-28T06:32:55.348Z,4.88
2022-08-28T06:35:58.142Z,5.82
2022-08-28T06:39:02.352Z,4.88
2022-08-28T06:42:06.054Z,5.35
2022-08-28T06:45:08.850Z,4.50
2022-08-28T06:48:16.949Z,3.55
2022-08-28T06:51:20.465Z,4.90
2022-08-28T06:54:27.099Z,5.88
2022-08-28T06:57:31.834Z,7.70
2022-08-28T07:00:35.659Z,7.45
2022-08-28T07:03:42.523Z,6.43
2022-08-28T07:06:53.830Z,9.63
2022-08-28T07:09:56.515Z,5.65
2022-08-28T07:13:01.547Z,7.60
2022-08-28T07:16:04.884Z,7.60
2022-08-28T07:19:09.996Z,5.90
2022-08-28T07:22:12.843Z,9.45
2022-08-28T07:25:18.392Z,5.47
2022-08-28T07:28:21.260Z,6.80
2022-08-28T07:31:26.579Z,9.68
2022-08-28T07:34:39.138Z,5.43
2022-08-28T07:37:44.493Z,11.02
2022-08-28T07:40:49.848Z,6.93
2022-08-28T07:44:11.173Z,12.48
2022-08-28T07:47:14.832Z,9.70
2022-08-28T07:50:17.582Z,8.85
2022-08-28T07:53:20.502Z,10.55
2022-08-28T07:56:23.071Z,10.15
2022-08-28T07:59:27.598Z,9.07
2022-08-28T08:02:34.037Z,10.63
2022-08-28T08:05:36.245Z,12.95
2022-08-28T08:08:41.092Z,11.60
2022-08-28T08:11:44.450Z,11.73
2022-08-28T08:14:50.371Z,11.68
2022-08-28T08:17:53.416Z,11.70
2022-08-28T08:20:57.151Z,9.88
2022-08-28T08:24:02.492Z,10.13
2022-08-28T08:27:07.084Z,12.95
2022-08-28T08:30:10.766Z,14.02
2022-08-28T08:33:14.242Z,7.95
2022-08-28T08:36:18.465Z,10.40
2022-08-28T08:39:22.292Z,7.95
2022-08-28T08:42:27.183Z,9.07
2022-08-28T08:45:31.663Z,11.82
2022-08-28T08:48:35.337Z,11.43
2022-08-28T08:52:16.168Z,9.32
2022-08-28T08:55:36.312Z,9.45
2022-08-28T08:58:48.966Z,10.70
2022-08-28T09:01:56.466Z,6.68
2022-08-28T09:05:08.292Z,13.10
2022-08-28T09:08:18.061Z,8.50
2022-08-28T09:11:41.200Z,5.97
2022-08-28T09:15:10.575Z,7.60
2022-08-28T09:18:15.364Z,6.13
2022-08-28T09:21:33.076Z,5.85
2022-08-28T09:24:37.815Z,4.97
2022-08-28T09:27:53.390Z,5.45
2022-08-28T09:31:11.722Z,5.75
2022-08-28T09:34:38.650Z,5.80
2022-08-28T09:37:43.312Z,5.00
2022-08-28T09:41:05.664Z,5.63
2022-08-28T09:44:15.433Z,7.30
2022-08-28T09:47:54.630Z,5.53
2022-08-28T09:51:08.289Z,7.28
2022-08-28T09:54:23.641Z,7.82
2022-08-28T09:57:26.625Z,7.00
2022-08-28T10:00:34.039Z,5.47
2022-08-28T10:04:05.121Z,7.75
2022-08-28T10:07:29.352Z,5.85
2022-08-28T10:10:42.544Z,7.65
2022-08-28T10:14:20.101Z,6.82
2022-08-28T10:17:41.564Z,7.20
2022-08-28T10:21:02.832Z,9.55
2022-08-28T10:24:14.257Z,4.38
2022-08-28T10:27:36.359Z,7.15
2022-08-28T10:30:45.130Z,5.28
2022-08-28T10:34:05.343Z,3.42
2022-08-28T10:37:23.673Z,6.13
2022-08-28T10:41:02.072Z,3.85
2022-08-28T10:44:05.886Z,9.38
2022-08-28T10:47:09.577Z,7.15
2022-08-28T10:50:52.593Z,4.90
2022-08-28T10:54:04.265Z,3.25
2022-08-28T10:57:36.125Z,3.47
2022-08-28T11:00:44.408Z,6.53
2022-08-28T11:03:50.646Z,5.82
2022-08-28T11:06:59.284Z,4.10
2022-08-28T11:10:20.789Z,3.20
2022-08-28T11:13:46.817Z,6.03
2022-08-28T11:16:50.308Z,4.47
2022-08-28T11:20:25.653Z,5.00
2022-08-28T11:23:39.142Z,6.25
2022-08-28T11:26:49.623Z,7.07
2022-08-28T11:30:11.334Z,4.05
2022-08-28T11:33:36.306Z,11.70
2022-08-28T11:36:38.720Z,5.97
2022-08-28T11:39:42.193Z,6.57
2022-08-28T11:42:48.978Z,3.92
2022-08-28T11:45:55.286Z,4.85
2022-08-28T11:52:10.333Z,5.07
2022-08-28T11:55:33.669Z,3.88
2022-08-28T11:58:50.560Z,4.53
2022-08-28T12:01:52.883Z,4.32
2022-08-28T12:04:55.036Z,5.22
2022-08-28T12:07:58.242Z,3.63
2022-08-28T12:11:00.403Z,3.97
2022-08-28T12:14:02.573Z,4.18
2022-08-28T12:17:09.962Z,3.85
2022-08-28T12:20:26.626Z,3.95
2022-08-28T12:26:38.694Z,8.23
2022-08-28T12:29:52.593Z,4.00
2022-08-28T12:33:13.572Z,3.78
2022-08-28T12:36:17.585Z,2.72
2022-08-28T12:39:19.596Z,4.53
2022-08-28T12:42:27.249Z,8.15
2022-08-28T12:45:52.386Z,3.72
2022-08-28T12:49:00.699Z,4.45
2022-08-28T12:52:18.191Z,6.97
2022-08-28T12:55:24.464Z,3.38
2022-08-28T12:58:32.515Z,4.72
2022-08-28T13:01:35.756Z,6.10
2022-08-28T13:04:43.173Z,5.18
2022-08-28T13:07:48.902Z,4.22
2022-08-28T13:10:52.275Z,6.22
2022-08-28T13:13:54.421Z,3.42
2022-08-28T13:16:57.467Z,2.80
2022-08-28T13:20:07.655Z,2.80
2022-08-28T13:23:30.936Z,2.35
2022-08-28T13:26:35.694Z,2.80
2022-08-28T13:29:39.871Z,4.93
2022-08-28T13:32:56.589Z,6.57
2022-08-28T13:36:20.279Z,1.95
2022-08-28T13:39:23.366Z,2.58
2022-08-28T13:42:25.694Z,4.95
2022-08-28T13:45:31.577Z,2.45
2022-08-28T13:48:45.751Z,2.35
2022-08-28T13:51:48.989Z,2.33
2022-08-28T13:54:56.375Z,4.53
2022-08-28T14:01:04.589Z,2.72
2022-08-28T14:04:07.893Z,3.15
2022-08-28T14:07:11.919Z,2.35
2022-08-28T14:10:14.408Z,3.35
2022-08-28T14:13:17.809Z,4.32
2022-08-28T14:16:20.259Z,2.40
2022-08-28T14:19:23.006Z,3.55
2022-08-28T14:22:25.215Z,3.83
2022-08-28T14:25:27.522Z,5.88
2022-08-28T14:28:30.663Z,2.33
2022-08-28T14:31:36.903Z,2.47
2022-08-28T14:34:43.854Z,5.95
2022-08-28T14:37:47.270Z,5.65
2022-08-28T14:40:49.591Z,2.38
2022-08-28T14:43:54.956Z,1.92
2022-08-28T14:46:57.731Z,5.20
2022-08-28T14:50:00.883Z,2.80
2022-08-28T14:53:06.633Z,4.85
2022-08-28T14:56:14.505Z,5.68
2022-08-28T14:59:24.489Z,4.63
2022-08-28T15:02:27.769Z,4.82
2022-08-28T15:05:33.528Z,3.92
2022-08-28T15:08:38.299Z,3.25
2022-08-28T15:11:41.725Z,3.08
2022-08-28T15:14:51.362Z,2.72
2022-08-28T15:18:03.394Z,4.93
2022-08-28T15:21:08.168Z,3.42
2022-08-28T15:24:11.261Z,2.35
2022-08-28T15:27:13.379Z,4.47
2022-08-28T15:30:18.444Z,7.18
2022-08-28T15:33:21.152Z,3.83
2022-08-28T15:36:24.750Z,5.65
2022-08-28T15:39:47.070Z,2.80
2022-08-28T15:42:50.497Z,3.28
2022-08-28T15:45:56.068Z,4.07
2022-08-28T15:48:59.383Z,6.80
2022-08-28T15:52:01.795Z,3.05
2022-08-28T15:55:07.848Z,5.65
2022-08-28T15:58:13.737Z,7.22
2022-08-28T16:01:16.958Z,4.25
2022-08-28T16:04:19.589Z,4.40
2022-08-28T16:07:23.465Z,7.20
2022-08-28T16:10:26.272Z,4.28
2022-08-28T16:13:28.814Z,5.25
2022-08-28T16:16:31.671Z,9.00
2022-08-28T16:19:34.849Z,5.20
2022-08-28T16:22:44.529Z,4.70
2022-08-28T16:25:47.753Z,3.70
2022-08-28T16:28:50.210Z,3.65
2022-08-28T16:31:53.820Z,7.63
2022-08-28T16:34:57.489Z,5.47
2022-08-28T17:17:20.662Z,5.78
2022-08-28T17:20:41.349Z,6.28
2022-08-28T17:23:46.887Z,5.13
2022-08-28T17:26:49.617Z,7.13
2022-08-28T17:29:53.130Z,6.47
2022-08-28T17:32:55.359Z,5.18
2022-08-28T17:36:03.431Z,8.68
2022-08-28T17:39:08.904Z,2.83
2022-08-28T17:42:14.117Z,4.10
2022-08-28T17:45:19.824Z,3.70
2022-08-28T17:48:26.324Z,3.55
2022-08-28T17:54:47.066Z,5.07
2022-08-28T17:57:50.359Z,8.35
2022-08-28T18:00:52.703Z,4.18
2022-08-28T18:03:55.787Z,8.77
2022-08-28T18:06:58.789Z,5.60
2022-08-28T18:10:00.692Z,5.88
2022-08-28T18:13:05.272Z,5.90
2022-08-28T18:16:10.988Z,5.50
2022-08-28T18:19:14.544Z,5.43
2022-08-28T18:22:16.927Z,6.95
2022-08-28T18:25:40.681Z,5.18
2022-08-28T18:28:45.535Z,3.85
2022-08-28T18:31:47.856Z,7.75
2022-08-28T18:34:50.470Z,5.10
2022-08-28T18:37:52.891Z,9.75
2022-08-28T18:40:56.877Z,5.45
2022-08-28T18:43:59.057Z,4.70
2022-08-28T18:47:07.283Z,5.80
2022-08-28T18:50:10.246Z,5.20
2022-08-28T18:53:14.182Z,3.30
2022-08-28T18:56:16.933Z,5.47
2022-08-28T18:59:19.528Z,6.68
2022-08-28T19:02:22.290Z,3.35
2022-08-28T19:05:24.663Z,6.90
2022-08-28T19:08:28.062Z,3.53
2022-08-28T19:11:31.628Z,3.03
2022-08-28T19:14:35.643Z,5.03
2022-08-28T19:17:39.074Z,4.10
2022-08-28T19:20:41.755Z,3.03
2022-08-28T19:23:55.233Z,5.38
2022-08-28T19:26:58.237Z,6.93
2022-08-28T19:30:00.479Z,5.20
2022-08-28T19:33:07.610Z,4.47
2022-08-28T19:36:14.318Z,6.50
2022-08-28T19:39:17.865Z,4.85
2022-08-28T19:42:20.840Z,5.00
2022-08-28T19:45:23.601Z,7.40
2022-08-28T19:48:25.979Z,4.43
2022-08-28T19:51:41.779Z,5.78
2022-08-28T19:54:45.531Z,4.25
2022-08-28T19:57:49.086Z,5.05
2022-08-28T20:00:53.061Z,6.00
2022-08-28T20:03:57.185Z,5.38
2022-08-28T20:07:00.741Z,7.18
2022-08-28T20:10:03.599Z,9.38
2022-08-28T20:13:06.299Z,8.93
2022-08-28T20:16:09.037Z,6.60
2022-08-28T20:19:19.368Z,5.03
2022-08-28T20:22:22.177Z,5.03
2022-08-28T20:25:24.862Z,5.65
2022-08-28T20:28:27.117Z,6.43
2022-08-28T20:31:29.315Z,6.20
2022-08-28T20:34:31.494Z,6.47
2022-08-28T20:37:34.842Z,6.90
2022-08-28T20:40:47.455Z,9.55
2022-08-28T20:43:50.787Z,8.32
2022-08-28T20:46:54.693Z,7.60
2022-08-28T20:49:57.177Z,5.85
2022-08-28T20:53:02.847Z,6.10
2022-08-28T20:56:08.209Z,6.60
2022-08-28T20:59:10.865Z,5.63
2022-08-28T21:02:17.429Z,7.75
2022-08-28T21:05:20.031Z,6.93
2022-08-28T21:08:22.104Z,8.15
2022-08-28T21:11:25.695Z,9.52
2022-08-28T21:14:28.916Z,6.10
2022-08-28T21:17:31.553Z,5.55
2022-08-28T21:20:33.939Z,4.68
2022-08-28T21:23:36.410Z,5.07
2022-08-28T21:26:43.455Z,7.85
2022-08-28T21:29:46.254Z,8.98
2022-08-28T21:32:51.866Z,7.20
2022-08-28T21:38:58.526Z,6.38
2022-08-28T21:42:00.914Z,7.57
2022-08-28T21:45:04.693Z,6.28
2022-08-28T21:48:08.736Z,6.97
2022-08-28T21:51:14.844Z,5.72
2022-08-28T21:54:19.871Z,6.53
2022-08-28T21:57:22.090Z,6.93
2022-08-28T22:00:24.421Z,5.45
2022-08-28T22:03:27.673Z,5.07
2022-08-28T22:06:29.965Z,6.10
2022-08-28T22:09:34.060Z,10.52
2022-08-28T22:12:36.483Z,6.18
2022-08-28T22:15:40.805Z,5.45
2022-08-28T22:18:43.062Z,5.57
2022-08-28T22:22:03.640Z,4.57
2022-08-28T22:25:06.228Z,5.75
2022-08-28T22:28:09.466Z,4.40
2022-08-28T22:31:11.519Z,4.20
2022-08-28T22:34:15.018Z,3.45
2022-08-28T22:37:23.497Z,3.90
2022-08-28T22:40:25.497Z,3.85
2022-08-28T22:43:27.836Z,4.22
2022-08-28T22:46:30.123Z,4.03
2022-08-28T22:49:32.147Z,3.25
2022-08-28T22:52:34.288Z,2.55
2022-08-28T22:55:42.725Z,3.92
2022-08-28T22:58:45.304Z,2.75
2022-08-28T23:01:47.473Z,3.47
2022-08-28T23:04:52.085Z,4.05
2022-08-28T23:07:55.617Z,3.08
2022-08-28T23:10:59.398Z,4.70
2022-08-28T23:14:01.637Z,2.63
2022-08-28T23:17:03.717Z,2.10
2022-08-28T23:20:08.249Z,3.30
2022-08-28T23:23:12.295Z,2.17
2022-08-28T23:26:18.354Z,1.85
2022-08-28T23:29:20.598Z,2.53
2022-08-28T23:32:23.057Z,3.13
2022-08-28T23:35:25.380Z,3.83
2022-08-28T23:38:28.100Z,2.92
2022-08-28T23:41:32.622Z,2.92
2022-08-28T23:44:35.141Z,2.15
2022-08-28T23:47:40.359Z,6.10
2022-08-28T23:50:43.238Z,1.83
2022-08-28T23:53:47.576Z,3.03
2022-08-28T23:56:49.821Z,1.80
2022-08-28T23:59:52.964Z,2.05
